createdAt,value
2023-05-08T00:00:05.998Z,8.90
2023-05-08T00:03:58.031Z,7.90
2023-05-08T00:19:08.858Z,6.90
2023-05-08T00:23:02.231Z,8.40
2023-05-08T00:26:57.179Z,6.90
2023-05-08T00:42:38.516Z,7.80
2023-05-08T00:46:30.334Z,7.60
2023-05-08T00:50:23.122Z,6.60
2023-05-08T01:02:02.162Z,6.30
2023-05-08T01:05:53.849Z,7.20
2023-05-08T01:09:45.446Z,7.20
2023-05-08T01:13:40.320Z,6.20
2023-05-08T01:49:33.344Z,7.40
2023-05-08T01:53:28.424Z,5.50
2023-05-08T01:57:22.084Z,7.10
2023-05-08T02:01:03.018Z,5.20
2023-05-08T02:04:54.346Z,5.80
2023-05-08T02:08:48.370Z,5.90
2023-05-08T02:31:45.673Z,10.70
2023-05-08T02:35:37.790Z,8.60
2023-05-08T02:39:29.354Z,11.00
2023-05-08T02:43:21.602Z,8.90
2023-05-08T03:07:03.304Z,8.00
2023-05-08T03:10:55.763Z,8.10
2023-05-08T03:14:40.669Z,8.60
2023-05-08T03:18:33.650Z,8.20
2023-05-08T03:26:14.364Z,7.80
2023-05-08T03:30:08.125Z,7.40
2023-05-08T03:33:56.659Z,10.50
2023-05-08T03:45:52.686Z,11.00
2023-05-08T03:49:45.208Z,13.70
2023-05-08T03:53:37.354Z,10.60
2023-05-08T04:21:26.953Z,9.80
2023-05-08T04:25:19.603Z,8.10
2023-05-08T04:49:21.640Z,7.90
2023-05-08T05:01:13.036Z,7.60
2023-05-08T05:05:05.691Z,8.30
2023-05-08T05:24:17.188Z,8.10
2023-05-08T05:27:50.166Z,6.80
2023-05-08T05:31:41.501Z,8.30
2023-05-08T05:35:34.038Z,8.00
2023-05-08T05:43:23.254Z,5.00
2023-05-08T05:47:17.672Z,5.60
2023-05-08T05:51:00.166Z,5.20
2023-05-08T06:10:35.478Z,3.50
2023-05-08T06:14:27.481Z,5.70
2023-05-08T06:33:13.324Z,4.70
2023-05-08T06:37:07.392Z,4.50
2023-05-08T06:52:29.336Z,5.50
2023-05-08T06:56:14.881Z,5.30
2023-05-08T07:00:09.477Z,5.00
2023-05-08T07:19:31.540Z,3.80
2023-05-08T07:23:27.657Z,5.30
2023-05-08T07:27:21.042Z,4.80
2023-05-08T07:39:00.760Z,6.20
2023-05-08T07:42:53.888Z,4.90
2023-05-08T07:46:47.866Z,4.30
2023-05-08T07:58:39.161Z,5.00
2023-05-08T08:02:29.054Z,7.70
2023-05-08T08:06:22.007Z,4.30
2023-05-08T08:10:16.347Z,5.30
2023-05-08T08:29:36.953Z,10.20
2023-05-08T08:33:30.803Z,9.70
2023-05-08T08:37:24.962Z,10.10
2023-05-08T08:52:38.272Z,10.90
2023-05-08T08:56:31.097Z,12.50
2023-05-08T09:00:11.839Z,11.70
2023-05-08T09:04:04.481Z,11.60
2023-05-08T09:27:15.531Z,10.40
2023-05-08T09:31:07.864Z,9.40
2023-05-08T09:35:05.957Z,11.10
2023-05-08T09:39:16.211Z,10.00
2023-05-08T10:02:12.595Z,6.60
2023-05-08T10:06:08.259Z,10.00
2023-05-08T10:10:12.211Z,5.80
2023-05-08T10:14:05.557Z,6.60
2023-05-08T10:17:57.960Z,6.10
2023-05-08T10:21:38.815Z,4.80
2023-05-08T10:37:17.611Z,6.50
2023-05-08T10:41:08.671Z,4.10
2023-05-08T10:45:02.316Z,6.00
2023-05-08T11:00:51.901Z,6.30
2023-05-08T11:04:47.392Z,5.20
2023-05-08T11:32:11.248Z,6.30
2023-05-08T11:35:37.418Z,5.90
2023-05-08T11:39:49.905Z,7.80
2023-05-08T11:43:36.101Z,8.30
2023-05-08T11:47:44.137Z,8.20
2023-05-08T11:51:37.412Z,7.20
2023-05-08T12:07:27.735Z,8.00
2023-05-08T12:11:22.622Z,8.00
2023-05-08T12:14:55.729Z,8.50
2023-05-08T12:18:46.938Z,9.40
2023-05-08T12:41:47.121Z,9.80
2023-05-08T12:45:35.897Z,9.80
2023-05-08T12:49:29.653Z,13.80
2023-05-08T13:09:04.437Z,10.20
2023-05-08T13:12:55.928Z,15.90
2023-05-08T13:28:15.042Z,8.60
2023-05-08T13:32:08.179Z,10.90
2023-05-08T13:35:52.619Z,9.00
2023-05-08T13:39:23.856Z,8.40
2023-05-08T13:54:05.411Z,8.90
2023-05-08T13:57:47.269Z,9.60
2023-05-08T14:01:26.939Z,8.80
2023-05-08T14:05:19.166Z,8.90
2023-05-08T14:23:47.947Z,7.90
2023-05-08T14:27:19.920Z,8.30
2023-05-08T14:49:38.558Z,7.40
2023-05-08T14:53:14.142Z,7.30
2023-05-08T14:57:06.592Z,5.60
2023-05-08T15:00:59.210Z,6.20
2023-05-08T15:03:53.762Z,6.30
2023-05-08T15:06:31.321Z,8.00
2023-05-08T15:20:56.210Z,5.80
2023-05-08T15:24:40.570Z,4.70
2023-05-08T15:28:33.242Z,3.80
2023-05-08T15:43:59.978Z,5.80
2023-05-08T15:47:45.858Z,4.50
2023-05-08T15:51:29.931Z,2.60
2023-05-08T15:58:42.726Z,9.60
2023-05-08T16:14:21.663Z,8.40
2023-05-08T16:17:58.461Z,6.80
2023-05-08T16:21:27.518Z,4.10
2023-05-08T16:43:51.335Z,1.60
2023-05-08T16:47:36.816Z,1.60
2023-05-08T16:51:00.636Z,3.40
2023-05-08T16:54:53.499Z,5.80
2023-05-08T17:09:58.140Z,2.80
2023-05-08T17:13:39.400Z,1.90
2023-05-08T17:17:26.404Z,1.70
2023-05-08T17:21:19.868Z,6.00
2023-05-08T17:47:36.155Z,4.40
2023-05-08T17:51:21.086Z,4.00
2023-05-08T17:55:14.783Z,5.00
2023-05-08T18:10:24.319Z,2.20
2023-05-08T18:14:08.629Z,3.00
2023-05-08T18:18:01.609Z,4.80
2023-05-08T18:29:30.902Z,4.10
2023-05-08T18:33:20.812Z,5.10
2023-05-08T18:37:13.720Z,5.40
2023-05-08T18:41:17.266Z,6.40
2023-05-08T18:56:54.220Z,3.50
2023-05-08T19:00:20.258Z,4.40
2023-05-08T19:04:03.696Z,2.30
2023-05-08T19:07:47.582Z,3.20
2023-05-08T19:11:37.184Z,8.20
2023-05-08T19:23:44.994Z,9.80
2023-05-08T19:27:37.860Z,12.40
2023-05-08T19:31:30.171Z,4.00
2023-05-08T19:43:21.079Z,5.40
2023-05-08T19:47:13.239Z,6.30
2023-05-08T19:51:04.525Z,7.60
2023-05-08T20:06:20.069Z,6.60
2023-05-08T20:10:12.817Z,4.50
2023-05-08T20:14:04.673Z,7.20
2023-05-08T20:17:59.482Z,9.00
2023-05-08T20:21:52.520Z,12.30
2023-05-08T20:40:24.000Z,3.20
2023-05-08T20:44:15.088Z,5.10
2023-05-08T20:59:32.674Z,4.50
2023-05-08T21:03:25.314Z,6.60
2023-05-08T21:07:18.550Z,4.50
2023-05-08T21:18:58.321Z,6.00
2023-05-08T21:22:50.240Z,5.30
2023-05-08T21:26:44.863Z,7.70
2023-05-08T21:30:38.398Z,6.50
2023-05-08T21:34:22.091Z,4.80
2023-05-08T21:45:49.946Z,4.80
2023-05-08T21:49:42.810Z,6.10
2023-05-08T21:53:24.925Z,7.10
2023-05-08T21:57:18.370Z,6.30
2023-05-08T22:20:20.055Z,3.80
2023-05-08T22:24:04.700Z,3.40
2023-05-08T22:27:58.269Z,3.90
2023-05-08T22:31:55.144Z,4.00
2023-05-08T22:43:47.747Z,4.20
2023-05-08T22:47:40.134Z,2.90
2023-05-08T22:51:22.355Z,2.70
2023-05-08T22:55:06.364Z,2.60
2023-05-08T22:58:55.616Z,2.90
2023-05-08T23:21:12.444Z,2.40
2023-05-08T23:24:53.744Z,2.40
2023-05-08T23:28:44.056Z,1.20
2023-05-08T23:32:36.572Z,5.00
2023-05-08T23:44:18.766Z,2.20
2023-05-08T23:48:02.507Z,1.50
2023-05-08T23:51:56.816Z,1.80
